ENSO/SRP METAR and TAF weather

Enter ICAO airport designator
Station Type Date Time Source
ENSO METAR 2019/05/16 19:20 UTC NOAA

ENSO 161920Z 32006KT CAVOK 13/06 Q1025


Station Type Date Time Source
ENSO Decoded METAR 2019/05/16 19:20 UTC NOAA

Stord / Soerstokken, Norway (ENSO) 59-48N 005-21E
May 16, 2019 - 03:20 PM EDT / 2019.05.16 1920 UTC
Wind: from the NW (320 degrees) at 7 MPH (6 KT):0
Visibility: greater than 7 mile(s):0
Temperature: 55 F (13 C)
Dew Point: 42 F (6 C)
Relative Humidity: 62%
Pressure (altimeter): 30.27 in. Hg (1025 hPa)
ob: ENSO 161920Z 32006KT CAVOK 13/06 Q1025
cycle: 19

Station Type Date Time Source
ENSO TAF UTC NOAA

Error!

Example: see airport list